createdAt,value
2022-08-10T00:03:08.334Z,33.75
2022-08-10T00:08:00.789Z,33.67
2022-08-10T00:12:58.988Z,33.66
2022-08-10T00:17:50.583Z,33.69
2022-08-10T00:22:48.978Z,33.7
2022-08-10T00:27:50.394Z,33.81
2022-08-10T00:32:27.647Z,33.81
2022-08-10T00:37:20.342Z,33.81
2022-08-10T00:42:12.976Z,33.88
2022-08-10T00:47:05.470Z,34.07
2022-08-10T00:51:57.889Z,33.92
2022-08-10T00:57:17.335Z,33.9
2022-08-10T01:02:08.002Z,34.04
2022-08-10T01:06:35.382Z,34.18
2022-08-10T01:11:42.308Z,34.27
2022-08-10T01:16:19.962Z,34.09
2022-08-10T01:21:12.399Z,34.38
2022-08-10T01:26:11.258Z,34.16
2022-08-10T01:30:57.423Z,34.07
2022-08-10T01:35:50.028Z,34.29
2022-08-10T01:40:42.508Z,34.22
2022-08-10T01:50:27.254Z,34.05
2022-08-10T02:00:12.382Z,34.17
2022-08-10T02:09:57.758Z,34.52
2022-08-10T02:14:50.341Z,34.28
2022-08-10T02:19:42.829Z,34.28
2022-08-10T02:24:35.566Z,34.37
2022-08-10T02:29:28.353Z,34.33
2022-08-10T02:34:20.885Z,34.53
2022-08-10T02:39:13.624Z,34.31
2022-08-10T02:45:16.705Z,34.53
2022-08-10T02:48:58.532Z,34.53
2022-08-10T02:53:55.619Z,34.55
2022-08-10T02:58:43.571Z,34.35
2022-08-10T03:03:35.998Z,34.5
2022-08-10T03:08:28.835Z,34.38
2022-08-10T03:13:23.596Z,34.36
2022-08-10T03:18:15.609Z,34.58
2022-08-10T03:23:07.940Z,34.52
2022-08-10T03:28:00.599Z,34.59
2022-08-10T03:32:53.754Z,34.59
2022-08-10T03:37:45.822Z,34.59
2022-08-10T03:42:38.290Z,34.74
2022-08-10T03:47:30.770Z,34.82
2022-08-10T03:52:23.354Z,34.75
2022-08-10T03:57:15.886Z,34.88
2022-08-10T04:02:42.798Z,34.88
2022-08-10T04:07:00.348Z,34.71
2022-08-10T04:11:53.027Z,34.91
2022-08-10T04:16:45.596Z,34.93
2022-08-10T04:21:38.264Z,34.96
2022-08-10T04:26:30.616Z,35.25
2022-08-10T04:31:22.915Z,35.57
2022-08-10T04:36:15.140Z,36.19
2022-08-10T04:41:07.514Z,36.52
2022-08-10T04:45:59.752Z,36.95
2022-08-10T04:50:54.113Z,37.94
2022-08-10T04:55:45.180Z,37.88
2022-08-10T05:00:38.262Z,36.81
2022-08-10T05:05:31.093Z,36.43
2022-08-10T05:10:23.874Z,36.41
2022-08-10T05:15:16.336Z,36.84
2022-08-10T05:20:08.973Z,36.69
2022-08-10T05:25:01.733Z,37.71
2022-08-10T05:30:01.138Z,39.19
2022-08-10T05:34:46.324Z,38.56
2022-08-10T05:39:38.957Z,38.93
2022-08-10T05:44:30.860Z,39.8
2022-08-10T05:49:23.604Z,39.85
2022-08-10T05:54:16.001Z,40.07
2022-08-10T05:59:08.768Z,39.32
2022-08-10T06:04:00.635Z,42.02
2022-08-10T06:08:53.366Z,40.77
2022-08-10T06:14:00.144Z,42.42
2022-08-10T06:18:37.990Z,42.27
2022-08-10T06:23:30.872Z,40.75
2022-08-10T06:28:23.983Z,41.6
2022-08-10T06:33:16.014Z,40.41
2022-08-10T06:38:08.391Z,41.46
2022-08-10T06:43:00.634Z,42.83
2022-08-10T06:47:53.123Z,41.99
2022-08-10T06:52:45.686Z,43.34
2022-08-10T06:57:38.655Z,41.73
2022-08-10T07:02:31.060Z,41.28
2022-08-10T07:07:23.438Z,41.54
2022-08-10T07:12:16.148Z,41.56
2022-08-10T07:17:08.527Z,41.96
2022-08-10T07:22:01.024Z,42.02
2022-08-10T07:26:53.871Z,42.05
2022-08-10T07:31:55.302Z,41.77
2022-08-10T07:36:38.925Z,41.53
2022-08-10T07:41:26.791Z,41.48
2022-08-10T07:46:19.197Z,41.18
2022-08-10T07:56:16.794Z,41.35
2022-08-10T08:05:59.265Z,40.98
2022-08-10T08:10:47.382Z,40.98
2022-08-10T08:16:16.081Z,40.91
2022-08-10T08:20:32.294Z,40.77
2022-08-10T08:25:24.857Z,40.55
2022-08-10T08:30:19.081Z,40.28
2022-08-10T08:35:10.440Z,40.23
2022-08-10T08:40:03.441Z,39.77
2022-08-10T08:44:55.957Z,39.68
2022-08-10T08:50:05.443Z,39.67
2022-08-10T08:54:41.250Z,39.46
2022-08-10T08:59:34.040Z,39.58
2022-08-10T09:04:27.343Z,40.89
2022-08-10T09:09:20.076Z,41.95
2022-08-10T09:14:12.499Z,39.5
2022-08-10T09:19:05.347Z,39.27
2022-08-10T09:24:01.332Z,38.85
2022-08-10T09:28:52.636Z,38.97
2022-08-10T09:36:19.138Z,39.15
2022-08-10T09:38:36.412Z,39.57
2022-08-10T09:43:28.897Z,39.32
2022-08-10T09:48:21.576Z,39.25
2022-08-10T09:53:14.264Z,38.21
2022-08-10T09:58:06.994Z,37.57
2022-08-10T10:02:59.808Z,37.79
2022-08-10T10:07:52.643Z,37.28
2022-08-10T10:12:45.462Z,37.41
2022-08-10T10:17:38.114Z,37.17
2022-08-10T10:22:30.721Z,38.33
2022-08-10T10:27:23.507Z,37.34
2022-08-10T10:32:16.334Z,37.13
2022-08-10T10:37:09.017Z,36.92
2022-08-10T10:42:04.151Z,36.91
2022-08-10T10:46:53.886Z,36.44
2022-08-10T10:51:46.666Z,36.41
2022-08-10T10:56:39.393Z,36.69
2022-08-10T11:01:31.648Z,37.47
2022-08-10T11:06:34.330Z,36.54
2022-08-10T11:11:20.500Z,36.75
2022-08-10T11:16:10.039Z,36.3
2022-08-10T11:21:02.577Z,36.16
2022-08-10T11:25:55.183Z,38.91
2022-08-10T11:30:48.212Z,37.07
2022-08-10T11:35:40.668Z,37.95
2022-08-10T11:40:33.183Z,37.48
2022-08-10T11:45:26.150Z,36.17
2022-08-10T11:50:18.621Z,35.87
2022-08-10T11:55:11.122Z,35.63
2022-08-10T12:00:03.966Z,35.67
2022-08-10T12:04:56.475Z,35.62
2022-08-10T12:10:08.351Z,35.25
2022-08-10T12:14:41.561Z,35.12
2022-08-10T12:19:36.617Z,34.79
2022-08-10T12:24:26.577Z,35.02
2022-08-10T12:29:21.434Z,35.61
2022-08-10T12:34:11.222Z,35.32
2022-08-10T12:39:04.040Z,34.97
2022-08-10T12:44:06.072Z,35.24
2022-08-10T12:48:49.734Z,35.33
2022-08-10T12:53:42.540Z,35.1
2022-08-10T12:58:58.569Z,35.1
2022-08-10T13:04:22.106Z,35.21
2022-08-10T13:08:26.171Z,35.16
2022-08-10T13:13:13.017Z,35.22
2022-08-10T13:18:05.687Z,35.13
2022-08-10T13:22:58.099Z,35.14
2022-08-10T13:28:00.320Z,35.06
2022-08-10T13:32:43.246Z,34.95
2022-08-10T13:37:36.089Z,35.29
2022-08-10T13:42:32.149Z,35.44
2022-08-10T13:47:21.212Z,35.09
2022-08-10T13:52:13.824Z,34.85
2022-08-10T13:57:06.642Z,35.29
2022-08-10T14:01:59.111Z,35.27
2022-08-10T14:06:52.362Z,35.33
2022-08-10T14:11:45.452Z,35.57
2022-08-10T14:16:38.182Z,35.54
2022-08-10T14:21:31.097Z,35.85
2022-08-10T14:26:23.853Z,35.73
2022-08-10T14:31:19.886Z,35.46
2022-08-10T14:36:17.223Z,35.4
2022-08-10T14:41:02.152Z,35.77
2022-08-10T14:45:54.910Z,35.39
2022-08-10T14:50:55.074Z,35.37
2022-08-10T14:55:57.502Z,35.45
2022-08-10T15:00:39.140Z,34.92
2022-08-10T15:05:25.707Z,35.28
2022-08-10T15:10:18.596Z,34.97
2022-08-10T15:20:13.384Z,34.93
2022-08-10T15:24:56.038Z,34.67
2022-08-10T15:29:56.794Z,34.76
2022-08-10T15:34:41.620Z,34.62
2022-08-10T15:40:22.853Z,34.83
2022-08-10T15:44:26.806Z,34.97
2022-08-10T15:49:19.409Z,34.43
2022-08-10T15:54:12.420Z,34.83
2022-08-10T15:59:08.152Z,34.61
2022-08-10T16:03:57.438Z,34.63
2022-08-10T16:08:50.340Z,34.29
2022-08-10T16:13:49.956Z,34.68
2022-08-10T16:18:35.591Z,34.73
2022-08-10T16:23:28.118Z,34.49
2022-08-10T16:28:23.024Z,34.5
2022-08-10T16:33:13.381Z,34.33
2022-08-10T16:38:06.139Z,35.07
2022-08-10T16:42:58.580Z,34.54
2022-08-10T16:47:51.122Z,36.47
2022-08-10T16:52:43.778Z,35.73
2022-08-10T16:57:36.846Z,36.16
2022-08-10T17:02:29.823Z,35.42
2022-08-10T17:07:25.119Z,34.88
2022-08-10T17:12:15.957Z,34.73
2022-08-10T17:17:08.671Z,35.93
2022-08-10T17:22:01.350Z,35.57
2022-08-10T17:26:54.347Z,34.91
2022-08-10T17:31:54.240Z,34.78
2022-08-10T17:36:40.083Z,35.42
2022-08-10T17:41:32.837Z,33.73
2022-08-10T17:46:25.490Z,33.49
2022-08-10T17:51:18.231Z,32.95
2022-08-10T17:56:11.198Z,33.73
2022-08-10T18:01:16.052Z,33.19
2022-08-10T18:05:56.403Z,33.56
2022-08-10T18:10:49.105Z,36.23
2022-08-10T18:15:41.992Z,32.84
2022-08-10T18:20:34.205Z,31.32
2022-08-10T18:25:26.975Z,31.68
2022-08-10T18:30:19.647Z,31.76
2022-08-10T18:35:12.548Z,31.96
2022-08-10T18:40:05.428Z,31.72
2022-08-10T18:44:58.057Z,31.73
2022-08-10T18:49:50.912Z,31.81
2022-08-10T18:54:44.628Z,31.76
2022-08-10T18:59:36.013Z,31.61
2022-08-10T19:04:28.256Z,31.85
2022-08-10T19:09:41.677Z,31.85
2022-08-10T19:14:13.516Z,31.95
2022-08-10T19:19:06.119Z,31.3
2022-08-10T19:23:58.785Z,31.44
2022-08-10T19:28:51.429Z,31.52
2022-08-10T19:33:44.123Z,31.47
2022-08-10T19:38:36.800Z,31.65
2022-08-10T19:43:31.071Z,31.58
2022-08-10T19:48:22.228Z,31.68
2022-08-10T19:53:14.805Z,32.21
2022-08-10T19:58:07.491Z,31.57
2022-08-10T20:02:59.949Z,32.71
2022-08-10T20:07:52.150Z,32.52
2022-08-10T20:12:38.235Z,32.52
2022-08-10T20:17:45.298Z,32.32
2022-08-10T20:22:28.897Z,32.33
2022-08-10T20:27:56.887Z,32.08
2022-08-10T20:37:04.485Z,32.07
2022-08-10T20:46:49.929Z,32
2022-08-10T20:56:35.299Z,31.95
2022-08-10T21:01:29.933Z,31.95
2022-08-10T21:06:31.632Z,31.92
2022-08-10T21:11:13.341Z,32.07
2022-08-10T21:16:05.958Z,31.94
2022-08-10T21:20:59.529Z,31.92
2022-08-10T21:25:51.037Z,31.93
2022-08-10T21:30:43.486Z,31.85
2022-08-10T21:35:36.367Z,32
2022-08-10T21:40:32.080Z,31.96
2022-08-10T21:45:21.484Z,32.07
2022-08-10T21:50:14.062Z,32.2
2022-08-10T21:55:06.845Z,32.19
2022-08-10T21:59:59.342Z,32.23
2022-08-10T22:04:51.776Z,32.24
2022-08-10T22:09:44.363Z,32.22
2022-08-10T22:14:37.085Z,32.31
2022-08-10T22:19:29.635Z,32.35
2022-08-10T22:24:22.270Z,32.35
2022-08-10T22:29:15.051Z,32.35
2022-08-10T22:34:07.533Z,32.38
2022-08-10T22:38:59.982Z,32.53
2022-08-10T22:43:52.547Z,32.45
2022-08-10T22:48:45.028Z,32.45
2022-08-10T22:53:37.154Z,32.53
2022-08-10T22:58:29.954Z,32.53
2022-08-10T23:03:22.769Z,32.49
2022-08-10T23:08:19.438Z,32.46
2022-08-10T23:13:07.816Z,32.46
2022-08-10T23:18:01.289Z,32.48
2022-08-10T23:22:52.504Z,32.72
2022-08-10T23:27:44.985Z,32.65
2022-08-10T23:32:37.604Z,32.58
2022-08-10T23:37:29.841Z,32.74
2022-08-10T23:42:22.606Z,32.73
2022-08-10T23:47:15.213Z,32.87
2022-08-10T23:52:07.721Z,32.87
2022-08-10T23:57:01.222Z,32.86
